Terminal Aerodrome Forecast
Issued by NWS Cleveland, OH

Home | Current Version | Previous Version | Graphics & Text | Print | Product List | Glossary On
Versions: 1 2 3 4 5 6 7 8 9 10 11 12 13 14 15 16 17 18 19 20 21
046
FTUS41 KCLE 091120
TAFYNG
TAF
KYNG 091120Z 0912/1012 19008KT P6SM SCT250
     FM091900 22008KT P6SM BKN100
     FM100400 26010KT 6SM -SHSN BKN025
     FM100600 27011KT 3SM -SHSN OVC015
      TEMPO 1006/1009 1SM -SN
     FM100900 27012KT 5SM -SHSN OVC015=

USA.gov is the U.S. government's official web portal to all federal, state and local government web resources and services.